createdAt,value
2022-09-16T00:00:55.946Z,3.53
2022-09-16T00:03:23.850Z,2.97
2022-09-16T00:05:54.205Z,2.87
2022-09-16T00:08:23.175Z,3.47
2022-09-16T00:10:51.116Z,3.73
2022-09-16T00:13:19.766Z,3.40
2022-09-16T00:15:50.965Z,3.53
2022-09-16T00:18:20.303Z,3.63
2022-09-16T00:20:49.716Z,3.47
2022-09-16T00:23:19.762Z,3.83
2022-09-16T00:25:52.500Z,3.90
2022-09-16T00:28:21.690Z,3.57
2022-09-16T00:30:49.794Z,3.70
2022-09-16T00:33:18.082Z,3.67
2022-09-16T00:35:45.827Z,3.20
2022-09-16T00:38:13.592Z,3.30
2022-09-16T00:40:47.043Z,3.40
2022-09-16T00:43:15.624Z,3.07
2022-09-16T00:45:45.568Z,3.20
2022-09-16T00:48:17.988Z,3.67
2022-09-16T00:50:49.346Z,3.33
2022-09-16T00:53:21.108Z,3.27
2022-09-16T00:55:51.881Z,2.80
2022-09-16T00:58:24.084Z,3.60
2022-09-16T01:00:52.187Z,3.70
2022-09-16T01:03:20.914Z,3.27
2022-09-16T01:05:50.110Z,3.23
2022-09-16T01:08:18.118Z,3.33
2022-09-16T01:10:45.785Z,3.17
2022-09-16T01:13:17.074Z,3.43
2022-09-16T01:15:52.307Z,2.97
2022-09-16T01:18:27.640Z,3.10
2022-09-16T01:21:23.563Z,3.17
2022-09-16T01:24:15.345Z,3.20
2022-09-16T01:27:15.688Z,3.10
2022-09-16T01:30:18.881Z,3.13
2022-09-16T01:33:04.971Z,3.33
2022-09-16T01:35:50.539Z,3.13
2022-09-16T01:38:34.424Z,3.60
2022-09-16T01:41:10.305Z,2.90
2022-09-16T01:43:50.861Z,3.50
2022-09-16T01:46:25.787Z,2.90
2022-09-16T01:49:02.073Z,3.47
2022-09-16T01:51:34.542Z,3.10
2022-09-16T01:54:09.357Z,3.63
2022-09-16T01:56:43.913Z,3.23
2022-09-16T01:59:16.289Z,2.80
2022-09-16T02:01:50.707Z,3.30
2022-09-16T02:04:24.825Z,2.90
2022-09-16T02:06:55.135Z,2.97
2022-09-16T02:09:28.026Z,3.00
2022-09-16T02:12:05.414Z,3.10
2022-09-16T02:14:37.147Z,3.37
2022-09-16T02:17:09.289Z,2.60
2022-09-16T02:19:42.973Z,3.17
2022-09-16T02:22:17.036Z,2.60
2022-09-16T02:24:47.740Z,3.20
2022-09-16T02:27:18.926Z,3.10
2022-09-16T02:29:51.575Z,2.87
2022-09-16T02:32:21.586Z,3.20
2022-09-16T02:34:54.439Z,2.70
2022-09-16T02:37:28.180Z,3.30
2022-09-16T02:40:02.198Z,3.57
2022-09-16T02:42:30.554Z,3.00
2022-09-16T02:44:59.312Z,3.37
2022-09-16T02:47:33.022Z,3.23
2022-09-16T02:50:09.027Z,3.50
2022-09-16T02:52:44.668Z,3.57
2022-09-16T02:55:21.679Z,3.37
2022-09-16T02:57:50.576Z,3.63
2022-09-16T03:00:18.342Z,3.40
2022-09-16T03:02:46.154Z,3.00
2022-09-16T03:08:06.597Z,3.10
2022-09-16T03:10:42.631Z,3.30
2022-09-16T03:13:14.390Z,2.97
2022-09-16T03:15:51.351Z,3.47
2022-09-16T03:18:32.095Z,3.43
2022-09-16T03:21:05.355Z,3.43
2022-09-16T03:23:44.035Z,3.80
2022-09-16T03:32:40.113Z,3.80
2022-09-16T03:35:11.505Z,3.90
2022-09-16T03:37:40.189Z,4.43
2022-09-16T03:40:11.021Z,3.57
2022-09-16T03:42:39.130Z,3.90
2022-09-16T03:45:07.875Z,4.07
2022-09-16T03:47:37.008Z,3.87
2022-09-16T03:50:05.170Z,3.70
2022-09-16T03:52:32.756Z,3.70
2022-09-16T03:55:00.365Z,3.73
2022-09-16T03:57:30.278Z,4.03
2022-09-16T03:59:57.893Z,4.00
2022-09-16T04:02:25.715Z,3.87
2022-09-16T04:04:54.745Z,3.83
2022-09-16T04:07:22.322Z,3.90
2022-09-16T04:09:49.992Z,3.97
2022-09-16T04:12:17.652Z,4.27
2022-09-16T04:14:45.225Z,4.23
2022-09-16T04:17:12.950Z,4.50
2022-09-16T04:19:40.561Z,4.33
2022-09-16T04:22:09.595Z,4.37
2022-09-16T04:24:37.295Z,4.40
2022-09-16T04:27:05.263Z,4.07
2022-09-16T04:29:33.242Z,5.27
2022-09-16T04:32:00.853Z,4.70
2022-09-16T04:34:28.410Z,4.53
2022-09-16T04:36:55.959Z,4.27
2022-09-16T04:39:25.355Z,5.17
2022-09-16T04:41:52.963Z,4.80
2022-09-16T04:44:20.551Z,4.07
2022-09-16T04:46:48.267Z,4.77
2022-09-16T04:49:15.834Z,4.93
2022-09-16T04:51:43.635Z,4.70
2022-09-16T04:54:11.757Z,5.27
2022-09-16T04:56:40.658Z,4.90
2022-09-16T04:59:08.320Z,5.27
2022-09-16T05:01:38.488Z,4.57
2022-09-16T05:04:07.977Z,5.03
2022-09-16T05:06:37.263Z,4.93
2022-09-16T05:09:05.033Z,4.73
2022-09-16T05:11:34.437Z,5.47
2022-09-16T05:14:05.370Z,4.97
2022-09-16T05:16:33.832Z,5.77
2022-09-16T05:19:04.652Z,5.87
2022-09-16T05:21:34.717Z,5.30
2022-09-16T05:24:03.716Z,5.60
2022-09-16T05:26:35.196Z,5.47
2022-09-16T05:29:06.734Z,5.30
2022-09-16T05:31:36.233Z,5.40
2022-09-16T05:34:05.974Z,5.37
2022-09-16T05:36:35.972Z,5.37
2022-09-16T05:41:55.180Z,6.20
2022-09-16T05:44:24.453Z,5.60
2022-09-16T05:46:52.102Z,5.60
2022-09-16T05:49:21.158Z,5.60
2022-09-16T05:51:49.791Z,5.67
2022-09-16T05:54:18.526Z,6.07
2022-09-16T05:56:46.882Z,5.07
2022-09-16T05:59:16.020Z,5.40
2022-09-16T06:01:45.714Z,5.33
2022-09-16T06:04:14.846Z,6.00
2022-09-16T06:06:44.069Z,4.70
2022-09-16T06:09:15.023Z,5.40
2022-09-16T06:11:44.668Z,5.43
2022-09-16T06:14:13.996Z,5.00
2022-09-16T06:16:42.367Z,6.07
2022-09-16T06:19:14.055Z,5.13
2022-09-16T06:21:43.676Z,6.10
2022-09-16T06:24:12.289Z,5.53
2022-09-16T06:26:42.166Z,5.90
2022-09-16T06:29:11.117Z,5.90
2022-09-16T06:31:39.335Z,5.93
2022-09-16T06:34:08.077Z,5.50
2022-09-16T06:36:42.731Z,5.30
2022-09-16T06:39:13.109Z,6.60
2022-09-16T06:41:40.735Z,6.10
2022-09-16T06:44:08.597Z,5.53
2022-09-16T06:46:36.366Z,5.37
2022-09-16T06:49:06.108Z,6.07
2022-09-16T06:51:34.901Z,6.40
2022-09-16T06:54:05.617Z,6.97
2022-09-16T06:56:34.040Z,6.53
2022-09-16T06:59:01.667Z,6.67
2022-09-16T07:01:31.014Z,6.50
2022-09-16T07:03:59.912Z,6.77
2022-09-16T07:06:57.482Z,7.10
2022-09-16T07:09:19.343Z,7.30
2022-09-16T07:11:46.931Z,7.03
2022-09-16T07:14:14.999Z,5.90
2022-09-16T07:16:42.691Z,7.00
2022-09-16T07:19:10.841Z,6.43
2022-09-16T07:21:38.438Z,6.97
2022-09-16T07:24:06.391Z,6.50
2022-09-16T07:26:37.691Z,7.37
2022-09-16T07:29:07.811Z,6.50
2022-09-16T07:31:36.979Z,6.07
2022-09-16T07:34:06.369Z,6.73
2022-09-16T07:36:36.884Z,8.27
2022-09-16T07:39:05.146Z,7.50
2022-09-16T07:41:36.286Z,6.47
2022-09-16T07:44:05.384Z,7.57
2022-09-16T07:46:35.699Z,6.53
2022-09-16T07:49:05.368Z,7.87
2022-09-16T07:51:33.421Z,7.07
2022-09-16T07:54:03.888Z,7.40
2022-09-16T07:56:34.611Z,6.30
2022-09-16T07:59:06.599Z,6.73
2022-09-16T08:01:34.784Z,7.37
2022-09-16T08:04:04.451Z,7.57
2022-09-16T08:06:33.896Z,7.50
2022-09-16T08:09:10.532Z,6.80
2022-09-16T08:11:50.116Z,7.13
2022-09-16T08:14:19.057Z,6.90
2022-09-16T08:16:46.767Z,7.57
2022-09-16T08:19:14.617Z,7.07
2022-09-16T08:21:42.231Z,6.80
2022-09-16T08:24:11.033Z,7.03
2022-09-16T08:26:38.860Z,6.30
2022-09-16T08:29:09.662Z,6.53
2022-09-16T08:31:39.533Z,6.70
2022-09-16T08:34:07.411Z,6.77
2022-09-16T08:36:35.130Z,6.87
2022-09-16T08:39:03.174Z,6.87
2022-09-16T08:41:43.024Z,7.30
2022-09-16T08:44:20.966Z,6.43
2022-09-16T08:46:53.416Z,6.23
2022-09-16T08:49:30.536Z,6.93
2022-09-16T08:52:00.543Z,6.60
2022-09-16T08:54:32.605Z,6.43
2022-09-16T08:57:03.728Z,6.80
2022-09-16T08:59:36.850Z,6.43
2022-09-16T09:02:29.866Z,6.93
2022-09-16T09:04:58.228Z,7.20
2022-09-16T09:07:35.942Z,6.80
2022-09-16T09:10:12.010Z,6.90
2022-09-16T09:12:44.031Z,6.80
2022-09-16T09:15:35.381Z,6.83
2022-09-16T09:18:17.259Z,6.10
2022-09-16T09:20:55.284Z,7.60
2022-09-16T09:23:39.306Z,7.33
2022-09-16T09:26:14.743Z,7.13
2022-09-16T09:29:09.179Z,7.40
2022-09-16T09:34:34.954Z,6.90
2022-09-16T09:37:20.399Z,7.40
2022-09-16T09:40:01.695Z,7.60
2022-09-16T09:42:32.784Z,7.73
2022-09-16T09:45:04.772Z,7.03
2022-09-16T09:47:38.074Z,6.53
2022-09-16T09:50:18.550Z,6.30
2022-09-16T09:52:53.607Z,6.67
2022-09-16T09:55:24.739Z,5.60
2022-09-16T09:58:07.486Z,5.67
2022-09-16T10:00:35.206Z,6.47
2022-09-16T10:03:07.826Z,6.33
2022-09-16T10:05:36.808Z,6.77
2022-09-16T10:08:16.429Z,6.00
2022-09-16T10:10:50.279Z,6.60
2022-09-16T10:13:19.477Z,8.10
2022-09-16T10:15:51.954Z,7.30
2022-09-16T10:18:27.157Z,7.40
2022-09-16T10:21:08.127Z,6.97
2022-09-16T10:23:39.262Z,6.87
2022-09-16T10:26:20.337Z,6.57
2022-09-16T10:28:56.332Z,6.73
2022-09-16T10:31:25.254Z,7.43
2022-09-16T10:33:53.941Z,7.40
2022-09-16T10:36:26.263Z,6.93
2022-09-16T10:39:00.909Z,7.33
2022-09-16T10:41:36.100Z,7.43
2022-09-16T10:44:08.325Z,8.30
2022-09-16T10:46:36.174Z,7.43
2022-09-16T10:49:13.228Z,7.90
2022-09-16T10:51:42.284Z,7.17
2022-09-16T10:54:25.609Z,8.17
2022-09-16T10:56:53.399Z,7.67
2022-09-16T10:59:21.396Z,5.80
2022-09-16T11:01:59.379Z,5.60
2022-09-16T11:04:46.470Z,4.63
2022-09-16T11:07:28.359Z,4.27
2022-09-16T11:10:05.991Z,4.30
2022-09-16T11:12:53.331Z,4.37
2022-09-16T11:15:33.170Z,3.97
2022-09-16T11:18:19.408Z,4.13
2022-09-16T11:21:00.081Z,3.93
2022-09-16T11:23:50.786Z,3.80
2022-09-16T11:26:25.784Z,4.10
2022-09-16T11:29:27.239Z,4.20
2022-09-16T11:32:04.002Z,4.27
2022-09-16T11:34:44.607Z,4.30
2022-09-16T11:37:21.357Z,4.40
2022-09-16T11:40:02.896Z,4.80
2022-09-16T11:42:36.179Z,4.23
2022-09-16T11:45:17.837Z,4.90
2022-09-16T11:47:59.139Z,3.40
2022-09-16T11:50:45.594Z,3.57
2022-09-16T11:53:46.621Z,3.10
2022-09-16T11:56:20.529Z,3.07
2022-09-16T11:58:52.300Z,3.40
2022-09-16T12:01:30.202Z,3.90
2022-09-16T12:04:07.866Z,3.53
2022-09-16T12:06:41.991Z,3.73
2022-09-16T12:09:15.758Z,4.03
2022-09-16T12:11:49.319Z,3.50
2022-09-16T12:14:22.527Z,3.73
2022-09-16T12:16:55.020Z,4.00
2022-09-16T12:19:28.424Z,3.57
2022-09-16T12:22:03.760Z,3.63
2022-09-16T12:24:39.517Z,3.27
2022-09-16T12:27:31.644Z,3.07
2022-09-16T12:30:03.152Z,3.33
2022-09-16T12:32:38.687Z,3.70
2022-09-16T12:35:14.454Z,3.70
2022-09-16T12:37:48.358Z,3.33
2022-09-16T12:40:19.668Z,3.40
2022-09-16T12:43:23.624Z,3.57
2022-09-16T12:46:16.057Z,3.37
2022-09-16T12:49:03.262Z,3.00
2022-09-16T12:51:50.228Z,3.17
2022-09-16T12:55:04.390Z,3.63
2022-09-16T12:57:45.684Z,2.73
2022-09-16T13:00:18.985Z,2.60
2022-09-16T13:02:51.911Z,3.20
2022-09-16T13:05:26.248Z,2.57
2022-09-16T13:07:58.888Z,2.80
2022-09-16T13:10:53.923Z,2.03
2022-09-16T13:13:31.780Z,1.87
2022-09-16T13:16:01.631Z,2.33
2022-09-16T13:18:43.053Z,2.47
2022-09-16T13:21:23.253Z,2.33
2022-09-16T13:24:01.804Z,2.20
2022-09-16T13:26:40.880Z,2.07
2022-09-16T13:29:39.814Z,2.37
2022-09-16T13:32:25.943Z,2.77
2022-09-16T13:35:04.650Z,1.83
2022-09-16T13:37:32.350Z,1.93
2022-09-16T13:40:10.647Z,1.70
2022-09-16T13:42:38.270Z,2.00
2022-09-16T13:45:33.762Z,2.97
2022-09-16T13:48:07.437Z,2.20
2022-09-16T13:50:37.265Z,2.50
2022-09-16T13:53:11.142Z,2.23
2022-09-16T13:55:41.424Z,2.13
2022-09-16T13:58:21.771Z,2.37
2022-09-16T14:01:05.724Z,2.20
2022-09-16T14:03:56.300Z,1.83
2022-09-16T14:06:45.444Z,1.90
2022-09-16T14:09:27.236Z,2.80
2022-09-16T14:12:03.866Z,2.40
2022-09-16T14:14:49.846Z,2.13
2022-09-16T14:17:21.721Z,2.27
2022-09-16T14:19:51.347Z,2.63
2022-09-16T14:22:23.047Z,2.33
2022-09-16T14:25:00.554Z,2.53
2022-09-16T14:27:39.362Z,2.80
2022-09-16T14:30:14.825Z,2.83
2022-09-16T14:32:42.810Z,2.70
2022-09-16T14:35:13.455Z,2.60
2022-09-16T14:37:46.419Z,2.67
2022-09-16T14:40:16.646Z,2.87
2022-09-16T14:42:49.825Z,3.00
2022-09-16T14:45:18.121Z,2.23
2022-09-16T14:47:51.639Z,2.63
2022-09-16T14:50:23.294Z,2.57
2022-09-16T14:52:57.631Z,2.80
2022-09-16T14:55:30.062Z,2.73
2022-09-16T14:57:58.222Z,2.80
2022-09-16T15:00:28.478Z,2.50
2022-09-16T15:03:01.024Z,2.87
2022-09-16T15:05:33.883Z,2.90
2022-09-16T15:08:14.937Z,3.00
2022-09-16T15:10:55.255Z,3.13
2022-09-16T15:13:27.783Z,2.60
2022-09-16T15:15:58.885Z,2.50
2022-09-16T15:18:29.554Z,2.57
2022-09-16T15:21:04.578Z,2.40
2022-09-16T15:23:34.588Z,3.10
2022-09-16T15:26:12.602Z,2.83
2022-09-16T15:28:52.279Z,2.67
2022-09-16T15:31:28.284Z,2.57
2022-09-16T15:33:58.085Z,2.80
2022-09-16T15:36:40.117Z,2.77
2022-09-16T15:39:24.385Z,2.90
2022-09-16T15:42:06.049Z,2.70
2022-09-16T15:44:37.321Z,2.87
2022-09-16T15:47:05.858Z,3.10
2022-09-16T15:49:39.293Z,3.10
2022-09-16T15:52:11.552Z,3.03
2022-09-16T15:54:49.735Z,2.50
2022-09-16T15:57:30.544Z,2.97
2022-09-16T16:00:10.886Z,3.50
2022-09-16T16:02:44.651Z,3.00
2022-09-16T16:05:15.260Z,3.07
2022-09-16T16:07:45.751Z,3.27
2022-09-16T16:10:20.346Z,3.63
2022-09-16T16:12:49.352Z,3.30
2022-09-16T16:15:18.580Z,2.93
2022-09-16T16:17:47.493Z,3.17
2022-09-16T16:20:16.966Z,2.83
2022-09-16T16:22:45.350Z,2.87
2022-09-16T16:25:14.079Z,3.07
2022-09-16T16:27:43.009Z,2.90
2022-09-16T16:30:11.972Z,3.47
2022-09-16T16:32:40.005Z,3.50
2022-09-16T16:35:08.517Z,3.20
2022-09-16T16:37:51.970Z,3.17
2022-09-16T16:40:19.846Z,3.67
2022-09-16T16:42:48.896Z,3.47
2022-09-16T16:45:16.823Z,3.50
2022-09-16T16:47:46.268Z,3.00
2022-09-16T16:50:14.698Z,3.80
2022-09-16T16:52:42.416Z,4.40
2022-09-16T16:55:10.791Z,3.67
2022-09-16T16:57:38.496Z,3.50
2022-09-16T17:00:08.820Z,3.77
2022-09-16T17:02:36.634Z,3.20
2022-09-16T17:05:04.398Z,3.60
2022-09-16T17:07:31.997Z,5.27
2022-09-16T17:09:59.649Z,3.53
2022-09-16T17:12:27.917Z,3.63
2022-09-16T17:14:55.563Z,3.77
2022-09-16T17:17:29.114Z,3.23
2022-09-16T17:19:59.122Z,3.60
2022-09-16T17:22:26.753Z,3.03
2022-09-16T17:24:54.471Z,2.80
2022-09-16T17:27:24.820Z,3.10
2022-09-16T17:29:52.495Z,3.70
2022-09-16T17:32:20.535Z,3.40
2022-09-16T17:34:49.524Z,3.80
2022-09-16T17:37:19.928Z,3.43
2022-09-16T17:39:48.576Z,3.40
2022-09-16T17:42:16.236Z,3.60
2022-09-16T17:44:43.976Z,3.60
2022-09-16T17:47:11.919Z,3.53
2022-09-16T17:49:39.503Z,3.57
2022-09-16T17:52:08.850Z,3.60
2022-09-16T17:54:36.600Z,4.23
2022-09-16T17:57:04.270Z,3.90
2022-09-16T17:59:32.065Z,4.43
2022-09-16T18:02:00.094Z,4.47
2022-09-16T18:04:27.668Z,3.60
2022-09-16T18:06:55.321Z,4.10
2022-09-16T18:09:24.399Z,3.80
2022-09-16T18:11:52.133Z,4.10
2022-09-16T18:14:23.248Z,4.37
2022-09-16T18:16:51.458Z,4.20
2022-09-16T18:19:19.165Z,4.80
2022-09-16T18:21:47.037Z,4.30
2022-09-16T18:24:15.856Z,4.70
2022-09-16T18:26:45.225Z,4.03
2022-09-16T18:29:14.233Z,4.50
2022-09-16T18:31:43.826Z,3.90
2022-09-16T18:34:12.372Z,3.70
2022-09-16T18:36:40.360Z,3.70
2022-09-16T18:39:11.647Z,3.93
2022-09-16T18:41:41.352Z,4.00
2022-09-16T18:44:13.873Z,4.20
2022-09-16T18:46:41.735Z,4.30
2022-09-16T18:49:12.513Z,4.17
2022-09-16T18:51:41.786Z,3.93
2022-09-16T18:54:13.227Z,4.17
2022-09-16T18:56:42.360Z,4.57
2022-09-16T18:59:21.511Z,4.43
2022-09-16T19:01:52.011Z,3.73
2022-09-16T19:04:21.748Z,3.90
2022-09-16T19:06:51.877Z,4.07
2022-09-16T19:09:22.573Z,4.07
2022-09-16T19:11:52.352Z,4.23
2022-09-16T19:14:24.294Z,4.80
2022-09-16T19:16:52.120Z,4.63
2022-09-16T19:19:20.505Z,4.23
2022-09-16T19:21:48.577Z,5.03
2022-09-16T19:24:18.480Z,4.53
2022-09-16T19:26:48.030Z,4.10
2022-09-16T19:29:16.952Z,4.53
2022-09-16T19:31:47.711Z,4.83
2022-09-16T19:34:16.914Z,3.80
2022-09-16T19:36:45.112Z,4.73
2022-09-16T19:39:14.508Z,4.53
2022-09-16T19:41:42.930Z,4.10
2022-09-16T19:44:13.900Z,3.80
2022-09-16T19:46:42.714Z,4.50
2022-09-16T19:49:17.682Z,4.43
2022-09-16T19:51:45.433Z,4.30
2022-09-16T19:54:13.559Z,4.30
2022-09-16T19:56:41.182Z,4.97
2022-09-16T19:59:09.400Z,3.77
2022-09-16T20:01:38.349Z,4.50
2022-09-16T20:04:08.505Z,4.07
2022-09-16T20:06:39.310Z,4.27
2022-09-16T20:09:09.084Z,4.30
2022-09-16T20:11:41.652Z,4.33
2022-09-16T20:14:13.547Z,4.27
2022-09-16T20:16:41.381Z,3.90
2022-09-16T20:19:12.092Z,4.30
2022-09-16T20:21:41.336Z,3.97
2022-09-16T20:24:14.672Z,3.50
2022-09-16T20:26:42.334Z,4.23
2022-09-16T20:29:09.944Z,3.47
2022-09-16T20:31:38.295Z,4.07
2022-09-16T20:34:06.895Z,3.47
2022-09-16T20:36:38.865Z,3.30
2022-09-16T20:39:10.423Z,4.10
2022-09-16T20:41:39.673Z,4.20
2022-09-16T20:44:07.696Z,3.47
2022-09-16T20:46:36.965Z,3.60
2022-09-16T20:49:09.350Z,4.10
2022-09-16T20:51:37.668Z,4.30
2022-09-16T20:54:09.250Z,4.43
2022-09-16T20:56:40.588Z,3.70
2022-09-16T20:59:09.779Z,3.40
2022-09-16T21:01:38.925Z,4.13
2022-09-16T21:04:08.530Z,4.33
2022-09-16T21:06:37.292Z,4.03
2022-09-16T21:09:10.183Z,4.43
2022-09-16T21:11:40.752Z,3.30
2022-09-16T21:14:08.558Z,3.47
2022-09-16T21:16:38.077Z,4.07
2022-09-16T21:19:09.242Z,3.90
2022-09-16T21:21:38.243Z,3.73
2022-09-16T21:24:08.614Z,3.80
2022-09-16T21:26:38.463Z,3.40
2022-09-16T21:29:09.777Z,4.03
2022-09-16T21:31:39.164Z,3.53
2022-09-16T21:34:07.986Z,3.90
2022-09-16T21:36:37.627Z,3.90
2022-09-16T21:39:05.283Z,3.67
2022-09-16T21:41:34.610Z,4.07
2022-09-16T21:44:03.830Z,3.80
2022-09-16T21:46:33.661Z,4.50
2022-09-16T21:49:03.158Z,4.03
2022-09-16T21:51:35.113Z,3.77
2022-09-16T21:54:03.531Z,4.00
2022-09-16T21:56:32.040Z,4.50
2022-09-16T21:59:01.182Z,3.83
2022-09-16T22:01:33.566Z,4.20
2022-09-16T22:04:03.393Z,4.40
2022-09-16T22:06:31.515Z,4.33
2022-09-16T22:09:01.610Z,4.40
2022-09-16T22:11:31.313Z,4.47
2022-09-16T22:14:01.481Z,4.37
2022-09-16T22:16:31.128Z,4.27
2022-09-16T22:19:00.606Z,4.37
2022-09-16T22:21:31.204Z,4.20
2022-09-16T22:24:02.918Z,5.00
2022-09-16T22:26:31.749Z,4.50
2022-09-16T22:29:01.079Z,4.20
2022-09-16T22:31:30.452Z,4.10
2022-09-16T22:34:00.409Z,4.43
2022-09-16T22:36:31.003Z,3.67
2022-09-16T22:39:01.755Z,4.20
2022-09-16T22:41:30.453Z,3.47
2022-09-16T22:43:58.190Z,3.83
2022-09-16T22:46:29.346Z,3.97
2022-09-16T22:48:58.471Z,3.70
2022-09-16T22:51:27.019Z,3.10
2022-09-16T22:53:55.607Z,3.67
2022-09-16T22:56:25.876Z,3.40
2022-09-16T22:58:54.848Z,3.17
2022-09-16T23:01:24.790Z,3.07
2022-09-16T23:03:56.354Z,3.23
2022-09-16T23:06:25.311Z,3.17
2022-09-16T23:08:53.679Z,4.03
2022-09-16T23:11:25.855Z,3.60
2022-09-16T23:13:54.119Z,3.23
2022-09-16T23:16:23.982Z,4.30
2022-09-16T23:18:51.743Z,3.97
2022-09-16T23:21:23.219Z,4.10
2022-09-16T23:23:52.540Z,4.00
2022-09-16T23:26:22.181Z,4.03
2022-09-16T23:28:53.087Z,4.30
2022-09-16T23:31:22.513Z,4.17
2022-09-16T23:33:50.369Z,3.97
2022-09-16T23:36:20.277Z,3.80
2022-09-16T23:38:48.239Z,3.67
2022-09-16T23:41:18.386Z,3.87
2022-09-16T23:43:46.658Z,3.47
2022-09-16T23:46:16.207Z,4.40
2022-09-16T23:48:45.205Z,3.33
2022-09-16T23:51:13.962Z,3.40
2022-09-16T23:53:43.187Z,3.80
2022-09-16T23:56:13.437Z,3.40
2022-09-16T23:58:42.207Z,3.33
